Time;durP1;ratioP1;P1;durP2;ratioP2;P2;SDS_P1;SDS_P2;PMS_P1;PMS_P2;Temp;Humidity;BMP_temperature;BMP_pressure;BME280_temperature;BME280_humidity;BME280_pressure;Samples;Min_cycle;Max_cycle;Signal;HPM_P1;HPM_P2
2023/10/18 00:01:06;;;;;;;20.10;11.23;;;;;;;;;;5106656;28;20044;-50
2023/10/18 00:03:33;;;;;;;17.70;11.73;;;;;;;;;;5104069;28;20077;-53
2023/10/18 00:06:11;;;;;;;19.77;11.23;;;;;;;;;;5100310;28;20530;-49
2023/10/18 00:08:38;;;;;;;19.38;12.07;;;;;;;;;;5099979;28;20068;-51
2023/10/18 00:11:05;;;;;;;16.05;11.10;;;;;;;;;;5091387;28;20048;-53
2023/10/18 00:13:33;;;;;;;19.88;11.88;;;;;;;;;;5090996;28;20127;-50
2023/10/18 00:16:00;;;;;;;18.65;11.82;;;;;;;;;;5097610;28;20047;-50
2023/10/18 00:18:28;;;;;;;19.08;11.60;;;;;;;;;;5104694;28;20055;-50
2023/10/18 00:20:59;;;;;;;19.35;11.68;;;;;;;;;;5091296;28;20079;-51
2023/10/18 00:23:26;;;;;;;;;;;;;;;;;;5091469;28;20051;-50
2023/10/18 00:25:52;;;;;;;16.08;10.45;;;;;;;;;;5091624;28;20310;-50
2023/10/18 00:28:20;;;;;;;18.45;11.50;;;;;;;;;;5091868;28;20515;-50
2023/10/18 00:30:46;;;;;;;18.75;11.50;;;;;;;;;;5095512;28;20467;-50
2023/10/18 00:33:15;;;;;;;19.58;12.45;;;;;;;;;;5105475;28;20122;-51
2023/10/18 00:35:42;;;;;;;18.42;11.75;;;;;;;;;;5105221;28;20043;-51
2023/10/18 00:38:16;;;;;;;17.70;11.35;;;;;;;;;;5115647;28;20399;-48
2023/10/18 00:40:45;;;;;;;18.48;11.68;;;;;;;;;;5107682;28;20044;-50
2023/10/18 00:43:19;;;;;;;20.60;12.50;;;;;;;;;;5115393;28;20438;-53
2023/10/18 00:45:50;;;;;;;18.27;11.57;;;;;;;;;;5115499;28;20459;-49
2023/10/18 00:48:19;;;;;;;18.98;11.52;;;;;;;;;;5115738;28;20047;-48
2023/10/18 00:50:52;;;;;;;23.60;12.45;;;;;;;;;;5115341;28;20538;-52
2023/10/18 00:53:22;;;;;;;19.77;12.23;;;;;;;;;;5116004;28;20040;-49
2023/10/18 00:55:52;;;;;;;18.05;11.85;;;;;;;;;;5115444;28;20097;-49
2023/10/18 00:58:20;;;;;;;17.35;11.80;;;;;;;;;;5107075;28;20043;-51
2023/10/18 01:00:48;;;;;;;19.02;12.43;;;;;;;;;;5115272;28;20121;-52
2023/10/18 01:03:28;;;;;;;19.45;13.23;;;;;;;;;;5114846;28;20044;-51
2023/10/18 01:06:04;;;;;;;19.88;12.70;;;;;;;;;;5115430;28;20058;-48
2023/10/18 01:08:32;;;;;;;18.73;12.15;;;;;;;;;;5115249;28;20126;-57
2023/10/18 01:11:04;;;;;;;19.10;12.23;;;;;;;;;;5115215;28;20044;-50
2023/10/18 01:13:30;;;;;;;21.60;12.98;;;;;;;;;;5114595;28;20507;-50
2023/10/18 01:15:59;;;;;;;20.08;12.50;;;;;;;;;;5114749;28;20086;-51
2023/10/18 01:18:26;;;;;;;19.58;12.45;;;;;;;;;;5114904;28;20520;-49
2023/10/18 01:20:53;;;;;;;22.65;13.57;;;;;;;;;;5108328;28;20043;-50
2023/10/18 01:23:21;;;;;;;21.92;12.43;;;;;;;;;;5105203;28;20049;-50
2023/10/18 01:25:49;;;;;;;18.90;11.82;;;;;;;;;;5101484;28;20499;-51
2023/10/18 01:28:16;;;;;;;21.10;13.43;;;;;;;;;;5107822;28;20051;-51
2023/10/18 01:30:43;;;;;;;19.55;12.85;;;;;;;;;;5094491;28;20492;-50
2023/10/18 01:33:13;;;;;;;17.23;11.70;;;;;;;;;;5093748;28;20426;-50
2023/10/18 01:35:46;;;;;;;19.50;12.90;;;;;;;;;;5097190;28;20040;-49
2023/10/18 01:38:25;;;;;;;19.92;12.38;;;;;;;;;;5105130;28;20126;-50
2023/10/18 01:40:55;;;;;;;20.17;12.23;;;;;;;;;;5093228;28;20075;-52
2023/10/18 01:43:25;;;;;;;20.50;12.68;;;;;;;;;;5093872;28;20192;-50
2023/10/18 01:45:52;;;;;;;17.98;12.32;;;;;;;;;;5094072;28;20559;-50
2023/10/18 01:48:19;;;;;;;20.23;12.20;;;;;;;;;;5093896;28;20048;-49
2023/10/18 01:50:47;;;;;;;21.42;13.05;;;;;;;;;;5094367;28;20527;-50
2023/10/18 01:53:18;;;;;;;20.70;12.52;;;;;;;;;;5093979;28;20495;-50
2023/10/18 01:55:51;;;;;;;19.67;12.90;;;;;;;;;;5094056;28;20044;-51
2023/10/18 01:58:19;;;;;;;19.25;13.32;;;;;;;;;;5106329;28;20067;-47
2023/10/18 02:00:46;;;;;;;20.88;12.52;;;;;;;;;;5114176;28;20120;-50
2023/10/18 02:03:13;;;;;;;20.88;13.18;;;;;;;;;;5113534;28;20122;-50
2023/10/18 02:05:43;;;;;;;20.92;12.40;;;;;;;;;;5102163;28;20051;-50
2023/10/18 02:08:11;;;;;;;19.95;12.38;;;;;;;;;;5114005;28;20058;-51
2023/10/18 02:10:40;;;;;;;19.70;12.75;;;;;;;;;;5114068;28;20431;-49
2023/10/18 02:13:08;;;;;;;20.17;13.73;;;;;;;;;;5113728;28;20043;-50
2023/10/18 02:15:39;;;;;;;21.05;13.77;;;;;;;;;;5113444;28;20138;-50
2023/10/18 02:18:06;;;;;;;20.48;12.68;;;;;;;;;;5113926;28;20491;-50
2023/10/18 02:20:34;;;;;;;23.08;14.23;;;;;;;;;;5113689;28;20048;-49
2023/10/18 02:23:02;;;;;;;20.58;13.27;;;;;;;;;;5106787;28;20105;-50
2023/10/18 02:25:44;;;;;;;23.10;14.02;;;;;;;;;;5112031;28;20429;-50
2023/10/18 02:28:22;;;;;;;20.17;13.43;;;;;;;;;;5113388;28;20077;-50
2023/10/18 02:31:10;;;;;;;23.60;13.25;;;;;;;;;;5113534;28;20044;-49
2023/10/18 02:33:38;;;;;;;22.05;12.88;;;;;;;;;;5112784;28;20464;-49
2023/10/18 02:36:10;;;;;;;22.77;13.32;;;;;;;;;;5112164;28;20058;-48
2023/10/18 02:38:37;;;;;;;21.30;13.45;;;;;;;;;;5113350;28;20051;-49
2023/10/18 02:41:15;;;;;;;21.20;13.77;;;;;;;;;;5113112;28;20055;-48
2023/10/18 02:43:45;;;;;;;25.27;13.93;;;;;;;;;;5104640;28;20051;-49
2023/10/18 02:46:15;;;;;;;20.30;13.13;;;;;;;;;;5113294;28;20074;-46
2023/10/18 02:48:44;;;;;;;20.77;13.13;;;;;;;;;;5106805;28;20099;-51
2023/10/18 02:51:12;;;;;;;22.92;13.15;;;;;;;;;;5096639;28;20048;-49
2023/10/18 02:53:41;;;;;;;23.65;14.20;;;;;;;;;;5112430;28;20051;-51
2023/10/18 02:56:08;;;;;;;21.10;13.27;;;;;;;;;;5097001;28;20411;-54
2023/10/18 02:58:38;;;;;;;21.15;13.68;;;;;;;;;;5112055;28;20060;-50
2023/10/18 03:01:07;;;;;;;20.95;13.43;;;;;;;;;;5105370;28;20395;-53
2023/10/18 03:03:35;;;;;;;19.27;13.30;;;;;;;;;;5103194;28;20043;-50
2023/10/18 03:06:06;;;;;;;20.23;12.98;;;;;;;;;;5104403;28;20151;-51
2023/10/18 03:08:33;;;;;;;22.98;14.43;;;;;;;;;;5112664;28;20400;-54
2023/10/18 03:11:03;;;;;;;23.27;13.98;;;;;;;;;;5106253;28;20051;-54
2023/10/18 03:13:31;;;;;;;20.88;13.57;;;;;;;;;;5110749;28;20079;-54
2023/10/18 03:16:06;;;;;;;20.33;12.55;;;;;;;;;;5112296;28;20179;-53
2023/10/18 03:18:37;;;;;;;23.35;13.65;;;;;;;;;;5112568;28;20096;-53
2023/10/18 03:21:05;;;;;;;;;;;;;;;;;;5104374;28;20063;-54
2023/10/18 03:23:32;;;;;;;22.40;13.40;;;;;;;;;;5111988;28;19920;-51
2023/10/18 03:26:01;;;;;;;23.60;14.20;;;;;;;;;;5112225;28;20426;-50
2023/10/18 03:28:34;;;;;;;24.48;14.35;;;;;;;;;;5112381;28;20043;-55
2023/10/18 03:31:04;;;;;;;22.45;14.63;;;;;;;;;;5112515;28;20044;-52
2023/10/18 03:33:32;;;;;;;23.23;13.55;;;;;;;;;;5112207;28;20388;-52
2023/10/18 03:36:17;;;;;;;26.10;15.25;;;;;;;;;;5112049;28;20044;-55
2023/10/18 03:38:51;;;;;;;24.08;13.88;;;;;;;;;;5104126;28;20487;-52
2023/10/18 03:41:19;;;;;;;23.13;13.32;;;;;;;;;;5111444;28;20051;-55
2023/10/18 03:43:48;;;;;;;24.35;15.18;;;;;;;;;;5104719;28;20441;-53
2023/10/18 03:46:18;;;;;;;21.33;13.90;;;;;;;;;;5105036;28;20052;-53
2023/10/18 03:48:46;;;;;;;21.75;14.10;;;;;;;;;;5098635;28;20491;-52
2023/10/18 03:51:19;;;;;;;24.80;14.57;;;;;;;;;;5104420;28;20079;-53
2023/10/18 03:53:51;;;;;;;22.65;13.63;;;;;;;;;;5104148;28;20122;-53
2023/10/18 03:56:19;;;;;;;23.38;13.80;;;;;;;;;;5111701;28;20052;-50
2023/10/18 03:58:53;;;;;;;22.40;13.75;;;;;;;;;;5107440;28;20487;-52
2023/10/18 04:01:21;;;;;;;21.83;14.10;;;;;;;;;;5109583;28;20051;-54
2023/10/18 04:03:50;;;;;;;20.27;13.70;;;;;;;;;;5103615;28;20487;-50
2023/10/18 04:06:28;;;;;;;24.02;14.88;;;;;;;;;;5111378;28;20108;-50
2023/10/18 04:09:13;;;;;;;22.42;13.63;;;;;;;;;;5097138;28;20075;-53
2023/10/18 04:11:39;;;;;;;24.30;13.95;;;;;;;;;;5111831;28;20419;-53
2023/10/18 04:14:06;;;;;;;21.50;13.63;;;;;;;;;;5104516;28;20527;-55
2023/10/18 04:16:36;;;;;;;22.83;14.53;;;;;;;;;;5102786;28;20047;-55
2023/10/18 04:19:07;;;;;;;23.63;15.48;;;;;;;;;;5111642;28;20043;-54
2023/10/18 04:21:35;;;;;;;22.48;14.20;;;;;;;;;;5111769;28;20043;-52
2023/10/18 04:24:04;;;;;;;24.25;15.27;;;;;;;;;;5103251;28;20039;-55
2023/10/18 04:26:31;;;;;;;26.65;15.75;;;;;;;;;;5111445;28;20059;-54
2023/10/18 04:29:01;;;;;;;24.02;14.75;;;;;;;;;;5103256;28;20048;-56
2023/10/18 04:31:29;;;;;;;29.25;17.15;;;;;;;;;;5103405;28;20048;-55
2023/10/18 04:33:57;;;;;;;27.58;16.45;;;;;;;;;;5111350;28;20085;-53
2023/10/18 04:36:24;;;;;;;28.92;16.65;;;;;;;;;;5111459;28;20083;-51
2023/10/18 04:38:52;;;;;;;28.35;16.17;;;;;;;;;;5111430;28;20551;-53
2023/10/18 04:41:28;;;;;;;27.38;16.42;;;;;;;;;;5111250;28;20054;-51
2023/10/18 04:44:00;;;;;;;26.52;15.95;;;;;;;;;;5111416;28;20044;-52
2023/10/18 04:46:30;;;;;;;27.70;16.42;;;;;;;;;;5101948;28;20142;-53
2023/10/18 04:51:54;;;;;;;31.17;16.25;;;;;;;;;;5008993;28;20053;-55
2023/10/18 04:54:35;;;;;;;27.27;16.30;;;;;;;;;;5080620;28;20113;-55
2023/10/18 04:57:04;;;;;;;31.98;16.75;;;;;;;;;;5102931;28;20039;-52
2023/10/18 04:59:34;;;;;;;30.17;17.23;;;;;;;;;;5111208;28;20059;-52
2023/10/18 05:02:01;;;;;;;27.52;16.05;;;;;;;;;;5103029;28;20058;-55
2023/10/18 05:04:32;;;;;;;30.45;17.20;;;;;;;;;;5111121;28;20048;-50
2023/10/18 05:07:00;;;;;;;29.88;17.02;;;;;;;;;;5111368;28;20140;-49
2023/10/18 05:09:32;;;;;;;30.95;17.45;;;;;;;;;;5103230;28;20052;-53
2023/10/18 05:12:03;;;;;;;30.63;17.35;;;;;;;;;;5111029;28;20069;-52
2023/10/18 05:14:40;;;;;;;31.92;18.30;;;;;;;;;;5102661;28;20096;-52
2023/10/18 05:17:10;;;;;;;29.52;17.88;;;;;;;;;;5113938;28;20050;-50
2023/10/18 05:19:41;;;;;;;29.67;17.02;;;;;;;;;;5114897;28;20121;-52
2023/10/18 05:22:09;;;;;;;31.23;17.27;;;;;;;;;;5114589;28;20075;-50
2023/10/18 05:24:38;;;;;;;30.48;17.85;;;;;;;;;;5106171;28;20506;-51
2023/10/18 05:27:19;;;;;;;30.70;18.25;;;;;;;;;;5114322;28;20048;-53
2023/10/18 05:29:51;;;;;;;;;;;;;;;;;;5106676;28;20071;-53
2023/10/18 05:32:36;;;;;;;33.92;17.02;;;;;;;;;;5110513;28;19920;-52
2023/10/18 05:35:19;;;;;;;33.42;18.17;;;;;;;;;;5102574;28;20045;-54
2023/10/18 05:37:50;;;;;;;32.95;17.88;;;;;;;;;;5104605;28;20040;-51
2023/10/18 05:43:22;;;;;;;33.00;18.08;;;;;;;;;;5047186;28;20056;-55
2023/10/18 05:45:48;;;;;;;33.40;18.00;;;;;;;;;;5089592;28;20130;-51
2023/10/18 05:48:17;;;;;;;34.03;18.70;;;;;;;;;;5105647;28;20044;-54
2023/10/18 05:50:49;;;;;;;31.60;17.75;;;;;;;;;;5102297;28;20126;-49
2023/10/18 05:53:18;;;;;;;33.70;19.08;;;;;;;;;;5101814;28;20122;-54
2023/10/18 05:55:52;;;;;;;31.25;18.88;;;;;;;;;;5103925;28;20051;-51
2023/10/18 05:58:25;;;;;;;29.55;17.33;;;;;;;;;;5113774;28;20490;-52
2023/10/18 06:00:52;;;;;;;31.85;18.13;;;;;;;;;;5110072;28;20387;-52
2023/10/18 06:03:19;;;;;;;29.75;17.00;;;;;;;;;;5103210;28;20131;-53
2023/10/18 06:05:46;;;;;;;29.85;16.80;;;;;;;;;;5106096;28;20047;-50
2023/10/18 06:08:14;;;;;;;32.47;17.42;;;;;;;;;;5113824;28;20047;-51
2023/10/18 06:10:49;;;;;;;29.25;17.92;;;;;;;;;;5105443;28;20081;-52
2023/10/18 06:13:20;;;;;;;30.23;17.40;;;;;;;;;;5105302;28;20127;-54
2023/10/18 06:15:50;;;;;;;26.50;16.45;;;;;;;;;;5097793;28;20061;-52
2023/10/18 06:18:18;;;;;;;30.88;17.17;;;;;;;;;;5104994;28;20487;-53
2023/10/18 06:20:45;;;;;;;31.48;16.15;;;;;;;;;;5113535;28;20043;-53
2023/10/18 06:23:36;;;;;;;28.83;15.85;;;;;;;;;;5112230;28;20134;-55
2023/10/18 06:26:27;;;;;;;;;;;;;;;;;;5112981;28;20402;-50
2023/10/18 06:29:00;;;;;;;29.70;16.73;;;;;;;;;;5105831;28;19931;-52
2023/10/18 06:31:28;;;;;;;28.67;16.33;;;;;;;;;;5112866;28;20123;-52
2023/10/18 06:33:56;;;;;;;29.75;16.77;;;;;;;;;;5112538;28;20039;-49
2023/10/18 06:36:24;;;;;;;31.42;18.25;;;;;;;;;;5111862;28;20139;-53
2023/10/18 06:38:51;;;;;;;27.85;16.48;;;;;;;;;;5111802;28;20040;-56
2023/10/18 06:41:20;;;;;;;29.38;17.55;;;;;;;;;;5111968;28;20040;-50
2023/10/18 06:43:48;;;;;;;26.02;17.50;;;;;;;;;;5111494;28;20054;-50
2023/10/18 06:46:22;;;;;;;32.17;17.70;;;;;;;;;;5112839;28;20043;-49
2023/10/18 06:48:50;;;;;;;27.75;16.42;;;;;;;;;;5108255;28;20051;-50
2023/10/18 06:51:18;;;;;;;27.98;16.98;;;;;;;;;;5110985;28;20407;-51
2023/10/18 06:53:47;;;;;;;27.42;17.10;;;;;;;;;;5110193;28;20419;-51
2023/10/18 06:56:19;;;;;;;32.13;17.08;;;;;;;;;;5112201;28;20040;-54
2023/10/18 06:58:47;;;;;;;31.30;18.48;;;;;;;;;;5105766;28;20039;-53
2023/10/18 07:01:20;;;;;;;32.17;17.30;;;;;;;;;;5105341;28;20078;-53
2023/10/18 07:03:48;;;;;;;27.50;17.95;;;;;;;;;;5110672;28;20044;-51
2023/10/18 07:06:18;;;;;;;33.03;18.90;;;;;;;;;;5112908;28;20039;-51
2023/10/18 07:08:45;;;;;;;31.60;18.80;;;;;;;;;;5104820;28;20044;-55
2023/10/18 07:11:17;;;;;;;29.98;17.50;;;;;;;;;;5112312;28;20056;-51
2023/10/18 07:13:46;;;;;;;34.78;20.35;;;;;;;;;;5100459;28;20040;-51
2023/10/18 07:16:24;;;;;;;32.42;18.38;;;;;;;;;;5108888;28;20499;-50
2023/10/18 07:19:04;;;;;;;26.35;16.48;;;;;;;;;;5112595;28;20431;-55
2023/10/18 07:21:32;;;;;;;29.02;17.20;;;;;;;;;;5110030;28;20475;-53
2023/10/18 07:24:02;;;;;;;30.05;17.52;;;;;;;;;;5108666;28;20075;-51
2023/10/18 07:26:29;;;;;;;26.48;17.05;;;;;;;;;;5109483;28;20046;-53
2023/10/18 07:28:56;;;;;;;26.98;17.23;;;;;;;;;;5108986;28;20126;-53
2023/10/18 07:31:32;;;;;;;24.13;15.98;;;;;;;;;;5107216;28;20054;-53
2023/10/18 07:34:02;;;;;;;28.27;15.52;;;;;;;;;;5110110;28;20039;-54
2023/10/18 07:36:30;;;;;;;28.85;17.50;;;;;;;;;;5111134;28;20071;-51
2023/10/18 07:38:57;;;;;;;27.95;16.95;;;;;;;;;;5111174;28;20040;-52
2023/10/18 07:41:26;;;;;;;27.85;16.80;;;;;;;;;;5110424;28;20135;-53
2023/10/18 07:43:54;;;;;;;25.33;17.02;;;;;;;;;;5111302;28;20472;-54
2023/10/18 07:46:24;;;;;;;27.25;16.88;;;;;;;;;;5111420;28;20483;-52
2023/10/18 07:48:54;;;;;;;24.42;16.13;;;;;;;;;;5110243;28;20040;-54
2023/10/18 07:51:27;;;;;;;28.02;17.90;;;;;;;;;;5104748;28;20121;-52
2023/10/18 07:53:54;;;;;;;26.63;17.60;;;;;;;;;;5105881;28;20172;-50
2023/10/18 07:56:27;;;;;;;28.13;17.88;;;;;;;;;;5111096;28;20066;-51
2023/10/18 07:58:55;;;;;;;26.55;16.90;;;;;;;;;;5103328;28;20055;-54
2023/10/18 08:04:09;;;;;;;26.45;16.13;;;;;;;;;;5108485;28;20055;-54
2023/10/18 08:06:36;;;;;;;24.83;16.63;;;;;;;;;;5106249;28;20044;-55
2023/10/18 08:09:05;;;;;;;27.08;17.02;;;;;;;;;;5109190;28;20047;-59
2023/10/18 08:11:34;;;;;;;24.70;16.52;;;;;;;;;;5109740;28;20039;-63
2023/10/18 08:14:01;;;;;;;29.45;16.73;;;;;;;;;;5111420;28;20123;-56
2023/10/18 08:16:27;;;;;;;28.92;18.25;;;;;;;;;;5106341;28;20138;-54
2023/10/18 08:18:57;;;;;;;28.73;18.75;;;;;;;;;;5105029;28;20040;-54
2023/10/18 08:21:29;;;;;;;28.52;16.50;;;;;;;;;;5109292;28;20100;-55
2023/10/18 08:23:57;;;;;;;28.90;17.05;;;;;;;;;;5108256;28;20142;-54
2023/10/18 08:26:26;;;;;;;24.90;15.75;;;;;;;;;;5108901;28;20531;-53
2023/10/18 08:28:53;;;;;;;27.92;16.85;;;;;;;;;;5107212;28;20055;-55
2023/10/18 08:31:33;;;;;;;26.30;16.55;;;;;;;;;;5108172;28;20044;-53
2023/10/18 08:34:05;;;;;;;27.02;16.75;;;;;;;;;;5105063;28;20040;-55
2023/10/18 08:36:33;;;;;;;27.65;16.98;;;;;;;;;;5109583;28;20044;-55
2023/10/18 08:39:01;;;;;;;21.88;14.90;;;;;;;;;;5105013;28;20044;-54
2023/10/18 08:41:33;;;;;;;26.00;15.95;;;;;;;;;;5109313;28;20066;-51
2023/10/18 08:44:15;;;;;;;25.27;15.50;;;;;;;;;;5108521;28;20418;-55
2023/10/18 08:46:51;;;;;;;81.60;35.60;;;;;;;;;;5106070;28;20043;-56
2023/10/18 08:49:23;;;;;;;28.40;17.15;;;;;;;;;;5104701;28;20076;-55
2023/10/18 08:51:56;;;;;;;32.15;17.77;;;;;;;;;;5113694;28;20039;-54
2023/10/18 08:54:24;;;;;;;31.35;17.95;;;;;;;;;;5114836;28;20043;-53
2023/10/18 08:56:51;;;;;;;24.20;15.65;;;;;;;;;;5114090;28;20097;-54
2023/10/18 08:59:19;;;;;;;23.88;15.25;;;;;;;;;;5112626;28;20035;-53
2023/10/18 09:04:28;;;;;;;24.25;15.73;;;;;;;;;;5112454;28;20050;-51
2023/10/18 09:06:57;;;;;;;23.40;15.02;;;;;;;;;;5108691;28;20069;-55
2023/10/18 09:09:24;;;;;;;24.60;15.32;;;;;;;;;;5111148;28;20044;-53
2023/10/18 09:11:51;;;;;;;26.73;16.83;;;;;;;;;;5111582;28;20058;-51
2023/10/18 09:14:17;;;;;;;25.25;16.63;;;;;;;;;;5114550;28;20142;-51
2023/10/18 09:16:46;;;;;;;26.70;15.95;;;;;;;;;;5111648;28;20561;-53
2023/10/18 09:19:13;;;;;;;24.52;15.95;;;;;;;;;;5114130;28;20043;-54
2023/10/18 09:21:50;;;;;;;25.73;16.80;;;;;;;;;;5113563;28;20044;-55
2023/10/18 09:24:23;;;;;;;27.05;17.63;;;;;;;;;;5112202;28;20050;-54
2023/10/18 09:26:50;;;;;;;25.50;16.70;;;;;;;;;;5114176;28;20047;-55
2023/10/18 09:29:18;;;;;;;26.50;17.25;;;;;;;;;;5106110;28;20130;-54
2023/10/18 09:31:52;;;;;;;28.75;17.45;;;;;;;;;;5106203;28;20130;-56
2023/10/18 09:34:19;;;;;;;26.92;16.65;;;;;;;;;;5112838;28;20474;-54
2023/10/18 09:36:53;;;;;;;24.02;16.05;;;;;;;;;;5111694;28;20414;-55
2023/10/18 09:39:24;;;;;;;20.52;14.57;;;;;;;;;;5113228;28;20043;-54
2023/10/18 09:41:51;;;;;;;;;;;;;;;;;;5108183;28;20073;-55
2023/10/18 09:44:18;;;;;;;21.42;13.93;;;;;;;;;;5113688;28;19920;-54
2023/10/18 09:46:48;;;;;;;24.80;15.23;;;;;;;;;;5109985;28;20051;-53
2023/10/18 09:49:21;;;;;;;22.65;15.05;;;;;;;;;;5097484;28;20391;-55
2023/10/18 09:51:53;;;;;;;20.80;14.38;;;;;;;;;;5098637;28;20052;-53
2023/10/18 09:54:22;;;;;;;20.15;14.23;;;;;;;;;;5109002;28;20136;-52
2023/10/18 09:56:53;;;;;;;21.23;14.50;;;;;;;;;;5106195;28;20055;-55
2023/10/18 09:59:26;;;;;;;22.52;14.73;;;;;;;;;;5113519;28;20036;-51
2023/10/18 10:01:59;;;;;;;20.33;13.02;;;;;;;;;;5109723;28;20503;-54
2023/10/18 10:04:32;;;;;;;21.27;14.23;;;;;;;;;;5109063;28;20050;-55
2023/10/18 10:09:46;;;;;;;22.20;14.27;;;;;;;;;;5109579;28;20051;-55
2023/10/18 10:12:15;;;;;;;19.88;14.23;;;;;;;;;;5111782;28;20122;-52
2023/10/18 10:14:42;;;;;;;20.25;14.18;;;;;;;;;;5111293;28;20043;-55
2023/10/18 10:17:12;;;;;;;20.40;13.57;;;;;;;;;;5103929;28;20043;-52
2023/10/18 10:19:41;;;;;;;17.90;13.05;;;;;;;;;;5108090;28;20458;-58
2023/10/18 10:22:11;;;;;;;21.52;13.95;;;;;;;;;;5103820;28;20047;-55
2023/10/18 10:24:43;;;;;;;19.00;13.30;;;;;;;;;;5109976;28;20059;-49
2023/10/18 10:27:27;;;;;;;19.90;14.23;;;;;;;;;;5110643;28;20050;-57
2023/10/18 10:29:56;;;;;;;19.13;13.27;;;;;;;;;;5103869;28;21956;-59
2023/10/18 10:32:24;;;;;;;20.20;13.57;;;;;;;;;;5105808;28;20047;-59
2023/10/18 10:35:10;;;;;;;19.30;13.27;;;;;;;;;;5109956;28;20145;-59
2023/10/18 10:37:46;;;;;;;20.83;13.30;;;;;;;;;;5109303;28;20075;-58
2023/10/18 10:40:19;;;;;;;24.80;13.45;;;;;;;;;;5102962;28;20384;-59
2023/10/18 10:42:48;;;;;;;20.50;13.50;;;;;;;;;;5099276;28;20127;-59
2023/10/18 10:45:32;;;;;;;19.50;12.45;;;;;;;;;;5112266;28;20067;-58
2023/10/18 10:48:36;;;;;;;19.10;12.32;;;;;;;;;;5112247;28;20043;-59
2023/10/18 10:51:11;;;;;;;19.15;12.90;;;;;;;;;;5107135;28;20467;-59
2023/10/18 10:53:44;;;;;;;18.40;12.38;;;;;;;;;;5112291;28;20543;-56
2023/10/18 10:56:18;;;;;;;18.15;12.90;;;;;;;;;;5112810;28;20054;-58
2023/10/18 10:58:54;;;;;;;19.77;12.82;;;;;;;;;;5110015;28;20051;-58
2023/10/18 11:01:31;;;;;;;18.08;12.80;;;;;;;;;;5109641;27;20059;-58
2023/10/18 11:03:59;;;;;;;21.08;12.73;;;;;;;;;;5107774;28;20100;-61
2023/10/18 11:06:29;;;;;;;21.35;12.65;;;;;;;;;;5108290;27;20147;-54
2023/10/18 11:08:56;;;;;;;18.10;12.15;;;;;;;;;;5103329;28;20372;-50
2023/10/18 11:11:26;;;;;;;18.60;12.65;;;;;;;;;;5109156;28;20473;-55
2023/10/18 11:13:54;;;;;;;23.08;14.85;;;;;;;;;;5104818;28;20802;-51
2023/10/18 11:16:21;;;;;;;30.75;19.08;;;;;;;;;;5111080;28;20044;-51
2023/10/18 11:18:49;;;;;;;59.05;31.13;;;;;;;;;;5110346;28;20187;-55
2023/10/18 11:21:24;;;;;;;37.63;20.80;;;;;;;;;;5106133;28;20040;-53
2023/10/18 11:23:56;;;;;;;41.35;27.63;;;;;;;;;;5109807;28;20044;-51
2023/10/18 11:26:25;;;;;;;29.13;18.60;;;;;;;;;;5111032;28;20062;-51
2023/10/18 11:28:58;;;;;;;39.55;23.75;;;;;;;;;;5110034;28;20128;-55
2023/10/18 11:31:27;;;;;;;33.35;23.63;;;;;;;;;;5109825;28;20095;-54
2023/10/18 11:33:59;;;;;;;31.38;19.92;;;;;;;;;;5103535;28;20043;-52
2023/10/18 11:36:27;;;;;;;21.42;14.63;;;;;;;;;;5101852;28;20046;-50
2023/10/18 11:41:41;;;;;;;21.75;14.18;;;;;;;;;;5097077;28;20067;-57
2023/10/18 11:44:13;;;;;;;25.15;15.75;;;;;;;;;;5105054;28;20084;-56
2023/10/18 11:46:47;;;;;;;20.95;15.43;;;;;;;;;;5105525;28;20414;-57
2023/10/18 11:49:15;;;;;;;22.88;16.13;;;;;;;;;;5106748;28;20055;-57
2023/10/18 11:51:45;;;;;;;20.00;13.80;;;;;;;;;;5104579;28;20040;-55
2023/10/18 11:54:13;;;;;;;21.17;13.55;;;;;;;;;;5106587;28;20039;-53
2023/10/18 11:56:40;;;;;;;18.55;14.60;;;;;;;;;;5108444;28;20055;-54
2023/10/18 11:59:06;;;;;;;18.50;12.68;;;;;;;;;;5106138;28;20127;-51
2023/10/18 12:01:34;;;;;;;22.13;15.27;;;;;;;;;;5108688;28;20499;-54
2023/10/18 12:04:02;;;;;;;25.13;15.23;;;;;;;;;;5107811;28;20043;-52
2023/10/18 12:06:30;;;;;;;19.40;13.90;;;;;;;;;;5104501;28;20135;-52
2023/10/18 12:09:25;;;;;;;25.25;15.65;;;;;;;;;;5106014;28;20052;-53
2023/10/18 12:11:52;;;;;;;20.80;13.05;;;;;;;;;;5104496;28;20044;-52
2023/10/18 12:14:22;;;;;;;18.50;12.63;;;;;;;;;;5105682;28;20035;-59
2023/10/18 12:16:51;;;;;;;19.85;13.27;;;;;;;;;;5107404;28;20461;-57
2023/10/18 12:19:18;;;;;;;19.52;12.55;;;;;;;;;;5106001;28;20479;-51
2023/10/18 12:21:48;;;;;;;17.63;11.93;;;;;;;;;;5104035;28;20062;-58
2023/10/18 12:24:16;;;;;;;17.77;11.52;;;;;;;;;;5103121;28;20063;-68
2023/10/18 12:26:45;;;;;;;17.75;11.93;;;;;;;;;;5107103;28;20645;-54
2023/10/18 12:29:16;;;;;;;16.05;10.80;;;;;;;;;;5110347;28;20071;-64
2023/10/18 12:31:52;;;;;;;15.60;11.60;;;;;;;;;;5108555;28;20043;-59
2023/10/18 12:34:28;;;;;;;27.50;15.52;;;;;;;;;;5110816;28;20043;-58
2023/10/18 12:36:57;;;;;;;25.48;14.88;;;;;;;;;;5109178;28;20168;-56
2023/10/18 12:39:25;;;;;;;23.25;14.63;;;;;;;;;;5107044;28;20043;-62
2023/10/18 12:41:53;;;;;;;21.33;14.88;;;;;;;;;;5109052;28;20043;-55
2023/10/18 12:44:21;;;;;;;20.00;13.13;;;;;;;;;;5109497;28;20044;-57
2023/10/18 12:46:50;;;;;;;18.40;12.50;;;;;;;;;;5111769;28;20047;-52
2023/10/18 12:49:22;;;;;;;23.35;13.13;;;;;;;;;;5111710;28;20096;-56
2023/10/18 12:51:59;;;;;;;23.15;14.27;;;;;;;;;;5108740;28;20089;-54
2023/10/18 12:54:30;;;;;;;21.10;12.48;;;;;;;;;;5105816;28;20067;-54
2023/10/18 12:56:57;;;;;;;18.08;12.60;;;;;;;;;;5110219;28;20059;-55
2023/10/18 12:59:23;;;;;;;17.48;11.27;;;;;;;;;;5110158;28;20061;-57
2023/10/18 13:01:51;;;;;;;16.13;11.40;;;;;;;;;;5107615;28;20142;-56
2023/10/18 13:04:17;;;;;;;15.23;10.63;;;;;;;;;;5108263;28;20064;-59
2023/10/18 13:06:44;;;;;;;13.73;10.57;;;;;;;;;;5106620;28;20449;-53
2023/10/18 13:09:22;;;;;;;16.42;10.82;;;;;;;;;;5110845;28;20070;-54
2023/10/18 13:12:00;;;;;;;15.75;10.90;;;;;;;;;;5110594;28;20414;-56
2023/10/18 13:14:30;;;;;;;12.55;9.95;;;;;;;;;;5107747;28;20040;-58
2023/10/18 13:16:58;;;;;;;18.23;11.23;;;;;;;;;;5108929;28;20659;-55
2023/10/18 13:19:27;;;;;;;14.13;10.75;;;;;;;;;;5107823;28;20487;-54
2023/10/18 13:21:53;;;;;;;14.05;10.38;;;;;;;;;;5110403;28;20086;-55
2023/10/18 13:24:29;;;;;;;14.18;10.10;;;;;;;;;;5102205;28;20044;-52
2023/10/18 13:27:00;;;;;;;12.48;10.30;;;;;;;;;;5107971;28;20395;-52
2023/10/18 13:29:35;;;;;;;;;;;;;;;;;;5105993;28;20067;-54
2023/10/18 13:32:10;;;;;;;15.57;10.50;;;;;;;;;;5107571;28;19947;-59
2023/10/18 13:34:39;;;;;;;18.42;11.27;;;;;;;;;;5106641;28;20039;-53
2023/10/18 13:37:10;;;;;;;16.00;10.18;;;;;;;;;;5106514;28;20039;-57
2023/10/18 13:39:39;;;;;;;;;;;;;;;;;;5109128;28;20071;-54
2023/10/18 13:42:06;;;;;;;13.98;10.65;;;;;;;;;;5109567;28;19926;-51
2023/10/18 13:44:33;;;;;;;14.98;9.82;;;;;;;;;;5110374;28;20430;-54
2023/10/18 13:47:00;;;;;;;14.73;9.50;;;;;;;;;;5109706;28;20469;-54
2023/10/18 13:49:27;;;;;;;14.10;10.13;;;;;;;;;;5107335;28;20434;-51
2023/10/18 13:51:54;;;;;;;15.18;9.55;;;;;;;;;;5110927;28;20056;-54
2023/10/18 13:54:29;;;;;;;13.35;9.75;;;;;;;;;;5103224;28;20050;-57
2023/10/18 13:57:16;;;;;;;16.02;11.23;;;;;;;;;;5109595;28;20556;-56
2023/10/18 13:59:43;;;;;;;14.50;10.25;;;;;;;;;;5108701;28;20043;-57
2023/10/18 14:02:17;;;;;;;14.40;10.73;;;;;;;;;;5108089;28;20066;-54
2023/10/18 14:04:45;;;;;;;12.93;9.02;;;;;;;;;;5108628;28;20517;-52
2023/10/18 14:07:12;;;;;;;13.45;8.80;;;;;;;;;;5108275;28;20039;-54
2023/10/18 14:09:43;;;;;;;16.20;9.50;;;;;;;;;;5110247;28;20602;-57
2023/10/18 14:12:11;;;;;;;13.48;9.02;;;;;;;;;;5101706;28;20043;-55
2023/10/18 14:14:38;;;;;;;14.02;9.50;;;;;;;;;;5109012;28;20052;-53
2023/10/18 14:17:04;;;;;;;13.00;9.18;;;;;;;;;;5109276;28;20069;-50
2023/10/18 14:19:32;;;;;;;13.02;8.63;;;;;;;;;;5108219;28;20043;-54
2023/10/18 14:21:59;;;;;;;14.18;8.93;;;;;;;;;;5109134;28;20134;-54
2023/10/18 14:24:28;;;;;;;13.80;9.25;;;;;;;;;;5110052;28;20039;-50
2023/10/18 14:26:56;;;;;;;13.90;9.18;;;;;;;;;;5107051;28;20058;-56
2023/10/18 14:29:25;;;;;;;12.55;9.38;;;;;;;;;;5105624;28;20051;-55
2023/10/18 14:31:52;;;;;;;12.75;9.00;;;;;;;;;;5102792;28;20487;-55
2023/10/18 14:34:22;;;;;;;12.45;8.90;;;;;;;;;;5107294;28;20130;-53
2023/10/18 14:36:50;;;;;;;12.68;8.90;;;;;;;;;;5102904;28;20039;-54
2023/10/18 14:39:17;;;;;;;13.02;8.45;;;;;;;;;;5109687;28;20051;-54
2023/10/18 14:41:43;;;;;;;12.15;8.02;;;;;;;;;;5103800;28;20544;-53
2023/10/18 14:44:11;;;;;;;12.52;8.23;;;;;;;;;;5101923;28;20052;-50
2023/10/18 14:46:41;;;;;;;11.85;7.95;;;;;;;;;;5106275;28;20126;-51
2023/10/18 14:49:08;;;;;;;11.95;7.45;;;;;;;;;;5103580;28;20138;-54
2023/10/18 14:51:35;;;;;;;10.68;7.30;;;;;;;;;;5103651;28;20139;-54
2023/10/18 14:54:01;;;;;;;10.52;7.85;;;;;;;;;;5109781;28;20534;-55
2023/10/18 14:56:31;;;;;;;11.50;7.55;;;;;;;;;;5109613;28;20050;-53